Misratah, Libya
Current Conditions -  °F | °C
As of 5:50 PM on Friday 24 Oct 2014 (Local Time) from HLLM Reporting Station
Scattered Clouds Scattered Clouds  
Wind Chill: 73°   Ceiling: Unl
Heat Index: 73°   Visibility: 5mi
Dew Point: 55°   Wind: 8mph
Humidity: 53%   Direction: 330°NNW
Pressure: 29.94"   Gusts: NA
Location:  32.38°N, 15.09°E
Report Text: HLLM 241450Z 33007KT 8000 SCT020 SCT040 23/13 Q1014
Loading
Personal Weather Stations






























Interactive Weather Map
Tropical Storm Tracking
New forecast layout! Learn more

10-Day Weather Forecast

Advertisements
Track Severe Weather on mobile